Time;durP1;ratioP1;P1;durP2;ratioP2;P2;SDS_P1;SDS_P2;PMS_P1;PMS_P2;Temp;Humidity;BMP_temperature;BMP_pressure;BME280_temperature;BME280_humidity;BME280_pressure;Samples;Min_cycle;Max_cycle;Signal;HPM_P1;HPM_P2
2022/08/21 00:01:17;;;;;;;16.63;8.03;;;;;;;20.77;65.95;99940.91;124034;1102;104297;-77
2022/08/21 00:03:49;;;;;;;15.50;8.17;;;;;;;20.76;66.25;99938.26;124210;1102;102213;-77
2022/08/21 00:06:21;;;;;;;16.13;8.10;;;;;;;20.75;66.69;99937.35;124155;1101;102772;-77
2022/08/21 00:08:56;;;;;;;14.93;7.63;;;;;;;20.71;66.63;99940.09;124171;1102;104163;-77
2022/08/21 00:11:28;;;;;;;15.40;8.10;;;;;;;20.68;66.86;99935.70;124197;1102;104270;-77
2022/08/21 00:13:59;;;;;;;19.53;8.17;;;;;;;20.67;66.23;99938.39;124171;1101;104217;-77
2022/08/21 00:16:31;;;;;;;18.43;8.13;;;;;;;20.62;66.40;99946.42;124158;1102;104178;-77
2022/08/21 00:19:02;;;;;;;16.53;8.33;;;;;;;20.60;67.28;99946.44;124114;1102;104252;-77
2022/08/21 00:21:35;;;;;;;15.43;8.30;;;;;;;20.60;66.78;99953.53;124185;1102;104258;-78
2022/08/21 00:24:08;;;;;;;18.80;8.77;;;;;;;20.61;66.76;99940.19;124219;1101;104163;-78
2022/08/21 00:26:40;;;;;;;18.63;8.33;;;;;;;20.60;67.30;99941.11;124271;1102;104223;-78
2022/08/21 00:29:11;;;;;;;18.00;8.20;;;;;;;20.59;67.21;99938.47;124233;1102;102787;-78
2022/08/21 00:31:44;;;;;;;15.60;8.40;;;;;;;20.57;67.25;99932.26;124164;1102;104749;-78
2022/08/21 00:34:15;;;;;;;15.77;8.60;;;;;;;20.53;68.24;99939.42;124136;1102;104162;-78
2022/08/21 00:36:47;;;;;;;19.47;8.80;;;;;;;20.49;68.04;99935.06;124200;1102;104612;-77
2022/08/21 00:39:18;;;;;;;17.67;8.13;;;;;;;20.50;67.96;99946.59;124154;1102;102314;-78
2022/08/21 00:41:50;;;;;;;14.50;7.80;;;;;;;20.47;68.79;99943.08;124169;1102;104165;-78
2022/08/21 00:44:21;;;;;;;19.90;9.63;;;;;;;20.42;68.99;99941.36;124233;1102;104343;-78
2022/08/21 00:46:53;;;;;;;19.30;9.30;;;;;;;20.41;69.38;99939.59;124167;1102;102415;-77
2022/08/21 00:49:25;;;;;;;19.30;8.97;;;;;;;20.36;69.84;99931.66;124237;1102;104227;-78
2022/08/21 00:52:00;;;;;;;18.17;9.63;;;;;;;20.33;69.49;99929.03;124180;1102;102569;-77
2022/08/21 00:54:33;;;;;;;18.30;9.37;;;;;;;20.28;69.20;99937.09;124107;1101;104287;-78
2022/08/21 00:57:11;;;;;;;19.12;9.08;;;;;;;20.21;69.69;99935.42;124093;1102;104224;-77
2022/08/21 00:59:45;;;;;;;17.43;8.93;;;;;;;20.16;69.49;99934.58;124114;1102;104191;-78
2022/08/21 01:02:17;;;;;;;16.53;9.00;;;;;;;20.13;69.33;99936.41;124202;1102;102670;-78
2022/08/21 01:04:50;;;;;;;19.60;9.15;;;;;;;20.08;69.41;99934.67;124044;1102;104162;-77
2022/08/21 01:07:22;;;;;;;16.00;8.83;;;;;;;20.05;70.89;99936.51;124241;1102;104165;-77
2022/08/21 01:09:53;;;;;;;16.40;9.27;;;;;;;20.02;70.07;99934.75;124272;1102;102280;-77
2022/08/21 01:12:26;;;;;;;16.37;8.17;;;;;;;19.98;70.26;99924.19;124216;1102;101940;-78
2022/08/21 01:14:58;;;;;;;18.03;8.73;;;;;;;19.92;70.81;99927.79;124089;1101;104217;-78
2022/08/21 01:17:30;;;;;;;18.03;9.10;;;;;;;19.88;70.99;99918.97;124031;1102;104689;-77
2022/08/21 01:20:05;;;;;;;19.33;9.03;;;;;;;19.85;72.13;99916.34;124094;1102;102187;-78
2022/08/21 01:22:37;;;;;;;21.03;9.07;;;;;;;19.82;71.16;99910.15;124136;1102;104259;-78
2022/08/21 01:25:12;;;;;;;22.03;8.63;;;;;;;19.82;71.31;99915.47;124140;1102;104159;-78
2022/08/21 01:27:44;;;;;;;18.87;8.73;;;;;;;19.82;71.68;99910.15;124121;1102;104163;-78
2022/08/21 01:30:21;;;;;;;19.60;8.70;;;;;;;19.86;71.72;99909.23;124101;1102;104242;-78
2022/08/21 01:32:53;;;;;;;17.77;9.00;;;;;;;19.86;71.95;99911.89;124114;1102;103109;-78
2022/08/21 01:35:25;;;;;;;15.80;8.23;;;;;;;19.83;71.64;99918.12;124177;1102;102994;-78
2022/08/21 01:37:57;;;;;;;19.20;9.43;;;;;;;19.82;71.91;99912.81;124133;1102;104364;-77
2022/08/21 01:40:31;;;;;;;18.77;8.43;;;;;;;19.81;71.77;99917.27;124083;1102;104258;-78
2022/08/21 01:43:03;;;;;;;17.53;8.53;;;;;;;19.79;72.12;99915.50;124110;1102;104172;-78
2022/08/21 01:45:35;;;;;;;13.97;8.40;;;;;;;19.80;71.80;99918.16;124077;1105;104160;-78
2022/08/21 01:48:06;;;;;;;17.50;8.87;;;;;;;19.75;72.46;99911.97;124040;1102;102329;-77
2022/08/21 01:50:38;;;;;;;15.07;7.77;;;;;;;19.70;71.94;99900.51;124117;1102;104329;-77
2022/08/21 01:53:10;;;;;;;19.33;8.50;;;;;;;19.65;72.96;99910.30;124277;1102;104217;-78
2022/08/21 01:55:41;;;;;;;17.90;8.97;;;;;;;19.61;72.96;99900.61;124091;1102;104181;-77
2022/08/21 01:58:13;;;;;;;18.35;8.60;;;;;;;19.57;72.81;99900.64;124029;1103;104169;-77
2022/08/21 02:00:45;;;;;;;14.97;8.33;;;;;;;19.53;73.01;99892.70;124074;1102;103579;-77
2022/08/21 02:03:16;;;;;;;17.07;8.80;;;;;;;19.50;72.67;99895.41;124078;1102;104239;-78
2022/08/21 02:05:48;;;;;;;17.70;8.47;;;;;;;19.47;73.43;99901.63;124217;1102;104155;-78
2022/08/21 02:08:23;;;;;;;16.77;8.60;;;;;;;19.45;72.72;99899.89;124311;1102;102114;-78
2022/08/21 02:10:54;;;;;;;18.50;8.43;;;;;;;19.44;72.99;99895.46;124297;1102;104176;-78
2022/08/21 02:13:26;;;;;;;19.70;8.50;;;;;;;19.43;73.24;99899.91;124264;1102;104223;-78
2022/08/21 02:15:58;;;;;;;16.73;8.37;;;;;;;19.43;73.79;99904.33;124243;1102;104333;-78
2022/08/21 02:18:29;;;;;;;19.77;9.07;;;;;;;19.44;73.12;99906.11;124303;1102;104165;-79
2022/08/21 02:21:02;;;;;;;19.40;8.37;;;;;;;19.45;73.75;99900.77;124188;1102;104663;-77
2022/08/21 02:23:34;;;;;;;17.20;8.40;;;;;;;19.45;73.32;99903.42;124296;1102;105445;-78
2022/08/21 02:26:08;;;;;;;14.00;8.45;;;;;;;19.46;74.28;99907.86;124188;1102;104217;-77
2022/08/21 02:28:39;;;;;;;;;;;;;;;19.45;73.32;99907.88;124287;1102;104160;-78
2022/08/21 02:31:10;;;;;;;15.43;8.13;;;;;;;19.44;73.84;99906.98;124239;1102;102774;-77
2022/08/21 02:33:42;;;;;;;22.33;9.07;;;;;;;19.47;73.31;99914.05;124213;1102;104226;-78
2022/08/21 02:36:15;;;;;;;18.47;8.70;;;;;;;19.45;74.37;99914.07;124312;1102;102766;-77
2022/08/21 02:38:47;;;;;;;17.13;8.70;;;;;;;19.41;73.52;99920.31;124310;1102;104175;-78
2022/08/21 02:41:21;;;;;;;20.40;8.87;;;;;;;19.39;74.10;99919.45;124245;1102;104460;-78
2022/08/21 02:43:52;;;;;;;21.10;8.70;;;;;;;19.34;74.57;99915.96;124259;1100;104179;-78
2022/08/21 02:46:24;;;;;;;15.87;8.90;;;;;;;19.31;74.24;99918.66;124240;1102;104210;-78
2022/08/21 02:48:56;;;;;;;15.80;8.80;;;;;;;19.28;74.04;99919.55;124256;1102;102162;-78
2022/08/21 02:51:27;;;;;;;16.53;9.17;;;;;;;19.29;74.57;99920.42;124297;1102;104281;-78
2022/08/21 02:53:59;;;;;;;18.00;9.57;;;;;;;19.28;74.64;99914.23;124197;1102;104181;-77
2022/08/21 02:56:30;;;;;;;18.00;8.93;;;;;;;19.26;74.23;99916.03;124341;1102;104170;-79
2022/08/21 02:59:02;;;;;;;17.00;8.67;;;;;;;19.24;75.63;99915.14;124275;1102;104304;-78
2022/08/21 03:01:33;;;;;;;18.00;9.53;;;;;;;19.23;74.97;99918.72;124264;1102;104337;-77
2022/08/21 03:04:05;;;;;;;18.00;9.47;;;;;;;19.22;75.38;99920.48;124288;1102;104271;-78
2022/08/21 03:06:36;;;;;;;19.37;9.57;;;;;;;19.21;75.33;99923.15;124170;1102;102790;-78
2022/08/21 03:09:07;;;;;;;17.90;10.03;;;;;;;19.17;75.75;99916.98;124276;1102;102813;-77
2022/08/21 03:11:39;;;;;;;18.37;9.00;;;;;;;19.16;75.97;99924.98;124209;1102;104236;-78
2022/08/21 03:14:10;;;;;;;21.73;9.47;;;;;;;19.13;75.99;99923.22;124242;1102;102162;-78
2022/08/21 03:16:42;;;;;;;19.47;8.93;;;;;;;19.07;75.52;99920.61;124285;1102;104227;-78
2022/08/21 03:19:13;;;;;;;17.40;9.30;;;;;;;19.03;75.51;99922.42;124279;1100;102980;-78
2022/08/21 03:21:45;;;;;;;18.40;8.87;;;;;;;19.02;76.07;99920.64;124265;1102;102191;-78
2022/08/21 03:24:16;;;;;;;17.13;8.43;;;;;;;18.99;75.80;99939.28;124231;1102;104242;-78
2022/08/21 03:26:48;;;;;;;20.77;9.17;;;;;;;18.97;76.03;99943.73;124241;1102;104172;-77
2022/08/21 03:29:19;;;;;;;20.30;8.93;;;;;;;18.98;76.44;99944.61;124263;1102;104242;-78
2022/08/21 03:31:53;;;;;;;18.40;9.03;;;;;;;18.99;76.28;99947.25;124204;1102;104162;-78
2022/08/21 03:34:23;;;;;;;;;;;;;;;19.01;75.86;99936.61;124276;1102;104192;-79
2022/08/21 03:36:54;;;;;;;19.43;9.03;;;;;;;19.07;75.89;99943.67;124249;1101;104175;-79
2022/08/21 03:39:25;;;;;;;17.30;9.13;;;;;;;19.09;75.81;99950.75;124270;1102;104169;-78
2022/08/21 03:41:57;;;;;;;15.30;8.70;;;;;;;19.12;76.18;99955.14;124216;1102;104283;-78
2022/08/21 03:44:30;;;;;;;19.00;8.90;;;;;;;19.14;75.67;99948.92;124191;1102;104335;-78
2022/08/21 03:47:03;;;;;;;17.27;8.67;;;;;;;19.17;76.02;99963.98;124247;1102;102820;-78
2022/08/21 03:49:34;;;;;;;22.17;8.93;;;;;;;19.19;76.54;99964.84;124215;1102;104660;-79
2022/08/21 03:52:06;;;;;;;16.00;8.63;;;;;;;19.23;76.10;99966.59;124233;1102;104274;-78
2022/08/21 03:54:40;;;;;;;17.53;8.63;;;;;;;19.32;76.08;99961.20;124211;1102;104236;-78
2022/08/21 03:57:15;;;;;;;17.27;8.90;;;;;;;19.39;76.02;99960.23;124185;1102;104248;-77
2022/08/21 03:59:46;;;;;;;16.33;8.50;;;;;;;19.43;76.00;99968.19;124228;1102;104166;-78
2022/08/21 04:02:21;;;;;;;19.45;8.70;;;;;;;19.42;76.44;99974.42;124297;1102;104178;-77
2022/08/21 04:04:53;;;;;;;18.37;8.67;;;;;;;19.44;75.92;99977.94;124236;1102;104332;-79
2022/08/21 04:07:24;;;;;;;18.27;8.20;;;;;;;19.50;76.37;99977.88;124228;1101;102285;-78
2022/08/21 04:09:56;;;;;;;15.77;8.40;;;;;;;19.54;75.84;99976.94;124161;1102;104380;-78
2022/08/21 04:12:27;;;;;;;17.63;8.47;;;;;;;19.56;76.34;99977.83;124242;1102;102835;-77
2022/08/21 04:15:01;;;;;;;19.40;9.13;;;;;;;19.60;75.71;99976.88;124180;1102;102999;-78
2022/08/21 04:17:34;;;;;;;17.17;8.03;;;;;;;19.64;76.14;99977.75;124227;1102;104265;-77
2022/08/21 04:20:07;;;;;;;20.90;9.60;;;;;;;19.68;76.55;99972.39;124268;1102;104232;-76
2022/08/21 04:22:39;;;;;;;19.87;8.93;;;;;;;19.77;76.45;99974.09;124304;1102;104054;-76
2022/08/21 04:25:11;;;;;;;17.47;8.53;;;;;;;19.86;76.58;99973.99;124267;1102;104355;-76
2022/08/21 04:27:43;;;;;;;18.33;8.50;;;;;;;19.92;76.61;99973.05;124139;1102;102258;-76
2022/08/21 04:30:16;;;;;;;17.87;8.73;;;;;;;19.97;76.04;99965.88;124198;1102;102835;-76
2022/08/21 04:32:47;;;;;;;;;;;;;;;19.99;76.44;99973.86;124236;1102;104245;-76
2022/08/21 04:35:21;;;;;;;20.97;8.80;;;;;;;19.99;75.92;99969.44;124167;1102;104166;-76
2022/08/21 04:37:54;;;;;;;16.73;9.23;;;;;;;20.00;76.00;99970.31;124175;1102;103877;-77
2022/08/21 04:40:29;;;;;;;15.57;8.73;;;;;;;20.02;76.16;99972.03;124221;1102;102551;-78
2022/08/21 04:43:04;;;;;;;19.63;9.10;;;;;;;20.05;76.33;99971.13;124269;1102;103558;-77
2022/08/21 04:45:39;;;;;;;17.43;8.73;;;;;;;20.08;76.31;99977.28;124228;1099;102842;-77
2022/08/21 04:48:13;;;;;;;17.47;9.47;;;;;;;20.13;76.88;99969.24;124188;1102;108365;-77
2022/08/21 04:50:48;;;;;;;20.63;8.60;;;;;;;20.15;76.01;99977.22;124306;1102;104162;-77
2022/08/21 04:53:23;;;;;;;16.97;8.97;;;;;;;20.14;77.16;99970.14;124276;1100;104281;-76
2022/08/21 04:56:02;;;;;;;21.57;9.53;;;;;;;20.11;76.66;99960.41;124223;1099;104291;-77
2022/08/21 04:58:35;;;;;;;22.17;9.83;;;;;;;20.11;76.96;99960.41;124168;1099;120097;-77
2022/08/21 05:01:09;;;;;;;18.20;9.57;;;;;;;20.15;76.11;99950.58;124183;1099;104205;-76
2022/08/21 05:03:41;;;;;;;18.63;9.43;;;;;;;20.20;76.16;99954.09;124182;1099;104239;-76
2022/08/21 05:06:16;;;;;;;20.13;9.80;;;;;;;20.26;76.56;99951.35;124270;1099;104166;-76
2022/08/21 05:08:53;;;;;;;18.57;10.13;;;;;;;20.30;76.77;99945.06;124289;1099;103566;-77
2022/08/21 05:11:24;;;;;;;21.63;10.37;;;;;;;20.36;76.93;99952.11;124247;1099;102727;-77
2022/08/21 05:13:56;;;;;;;19.27;10.50;;;;;;;20.42;76.80;99952.89;124247;1099;104160;-77
2022/08/21 05:16:28;;;;;;;19.03;10.43;;;;;;;20.48;76.69;99960.81;124267;1099;104160;-77
2022/08/21 05:19:00;;;;;;;19.27;10.23;;;;;;;20.56;77.06;99951.84;124163;1099;102784;-77
2022/08/21 05:21:33;;;;;;;17.73;9.30;;;;;;;20.63;76.43;99950.83;124230;1099;104249;-77
2022/08/21 05:24:04;;;;;;;21.93;10.60;;;;;;;20.72;77.24;99955.19;124219;1099;104259;-77
2022/08/21 05:26:37;;;;;;;23.83;10.83;;;;;;;20.76;76.05;99952.45;124187;1099;104159;-76
2022/08/21 05:29:09;;;;;;;21.20;10.70;;;;;;;20.83;76.81;99961.23;124268;1099;104176;-77
2022/08/21 05:31:40;;;;;;;20.83;10.80;;;;;;;20.87;76.23;99951.42;124190;1099;104210;-77
2022/08/21 05:34:12;;;;;;;21.07;10.60;;;;;;;20.92;76.65;99954.89;124227;1100;102749;-77
2022/08/21 05:36:43;;;;;;;21.10;12.07;;;;;;;20.97;76.80;99959.27;124210;1102;102908;-76
2022/08/21 05:39:15;;;;;;;26.03;12.67;;;;;;;21.03;77.13;99955.59;124274;1099;104169;-77
2022/08/21 05:41:47;;;;;;;25.73;13.07;;;;;;;21.10;76.67;99959.94;124210;1099;104201;-77
2022/08/21 05:44:19;;;;;;;23.70;11.73;;;;;;;21.15;76.99;99960.73;124196;1099;104229;-76
2022/08/21 05:46:50;;;;;;;23.73;12.00;;;;;;;21.21;77.47;99950.86;124254;1099;104233;-77
2022/08/21 05:49:21;;;;;;;21.30;11.63;;;;;;;21.27;77.01;99962.33;124188;1099;104236;-77
2022/08/21 05:51:53;;;;;;;21.50;11.83;;;;;;;21.33;76.59;99955.99;124131;1099;104048;-77
2022/08/21 05:54:24;;;;;;;20.77;11.90;;;;;;;21.38;77.11;99959.48;124261;1099;104159;-77
2022/08/21 05:56:56;;;;;;;22.53;12.07;;;;;;;21.44;77.16;99948.70;124179;1099;104310;-77
2022/08/21 05:59:29;;;;;;;27.13;13.73;;;;;;;21.47;76.65;99953.98;124191;1099;104238;-76
2022/08/21 06:02:00;;;;;;;25.13;13.03;;;;;;;21.52;77.27;99949.47;124210;1099;104162;-77
2022/08/21 06:04:36;;;;;;;26.70;14.20;;;;;;;21.61;77.02;99956.41;124214;1099;104160;-76
2022/08/21 06:07:08;;;;;;;25.57;12.93;;;;;;;21.67;76.19;99948.28;124222;1102;104073;-77
2022/08/21 06:09:42;;;;;;;24.90;12.93;;;;;;;21.74;77.35;99954.41;124202;1102;104239;-77
2022/08/21 06:12:15;;;;;;;23.03;13.03;;;;;;;21.80;76.21;99954.30;124196;1102;104239;-77
2022/08/21 06:14:46;;;;;;;23.07;12.47;;;;;;;21.88;76.99;99955.02;124224;1102;102453;-78
2022/08/21 06:17:18;;;;;;;22.80;12.50;;;;;;;21.94;76.58;99958.47;124164;1102;104287;-77
2022/08/21 06:19:54;;;;;;;22.67;12.80;;;;;;;22.01;77.14;99960.99;124212;1099;102619;-82
2022/08/21 06:22:25;;;;;;;22.30;12.73;;;;;;;22.10;76.89;99951.92;124200;1102;101867;-77
2022/08/21 06:24:56;;;;;;;22.00;13.40;;;;;;;22.17;76.66;99950.87;124239;1102;102771;-76
2022/08/21 06:27:29;;;;;;;24.85;13.40;;;;;;;22.26;76.40;99941.79;124182;1099;104163;-76
2022/08/21 06:30:00;;;;;;;23.10;13.10;;;;;;;22.32;76.54;99943.50;124166;1099;102826;-78
2022/08/21 06:32:32;;;;;;;25.70;12.90;;;;;;;22.38;76.20;99946.03;124232;1102;102270;-77
2022/08/21 06:35:04;;;;;;;21.77;12.97;;;;;;;22.44;76.14;99948.58;124219;1102;104236;-78
2022/08/21 06:37:35;;;;;;;23.87;13.57;;;;;;;22.50;76.43;99945.77;124210;1102;104238;-76
2022/08/21 06:40:09;;;;;;;25.20;14.00;;;;;;;22.58;76.46;99946.47;124175;1102;102129;-77
2022/08/21 06:42:39;;;;;;;;;;;;;;;22.63;75.99;99943.69;124170;1102;103453;-77
2022/08/21 06:45:11;;;;;;;21.65;13.00;;;;;;;22.70;76.04;99939.94;124166;1102;104288;-77
2022/08/21 06:47:43;;;;;;;26.73;13.77;;;;;;;22.80;76.20;99938.83;124221;1102;104236;-77
2022/08/21 06:50:15;;;;;;;22.57;13.70;;;;;;;22.92;76.02;99947.47;124242;1102;104163;-77
2022/08/21 06:52:46;;;;;;;24.10;13.13;;;;;;;23.01;75.85;99939.22;124213;1101;104243;-77
2022/08/21 06:55:17;;;;;;;22.43;13.07;;;;;;;23.11;76.21;99934.58;124156;1102;102090;-77
2022/08/21 06:57:49;;;;;;;25.57;13.63;;;;;;;23.24;76.13;99941.36;124224;1102;102915;-77
2022/08/21 07:00:21;;;;;;;24.03;13.73;;;;;;;23.36;75.99;99940.17;124139;1102;104175;-77
2022/08/21 07:02:53;;;;;;;23.07;14.03;;;;;;;23.52;75.75;99940.65;124278;1102;104325;-77
2022/08/21 07:05:26;;;;;;;24.00;13.87;;;;;;;23.65;75.49;99941.19;124252;1102;102797;-77
2022/08/21 07:07:57;;;;;;;23.93;14.20;;;;;;;23.78;75.51;99947.98;124117;1102;102659;-77
2022/08/21 07:10:29;;;;;;;25.37;13.60;;;;;;;23.92;75.38;99950.31;124249;1102;104328;-77
2022/08/21 07:13:01;;;;;;;22.03;13.50;;;;;;;24.04;74.82;99933.89;124177;1102;102785;-77
2022/08/21 07:15:32;;;;;;;23.90;14.67;;;;;;;24.20;75.22;99930.77;124210;1102;104377;-77
2022/08/21 07:18:04;;;;;;;22.70;13.80;;;;;;;24.33;74.67;99934.81;124166;1102;102861;-77
2022/08/21 07:20:35;;;;;;;22.90;13.47;;;;;;;24.46;74.55;99926.40;124202;1102;104339;-76
2022/08/21 07:23:24;;;;;;;23.83;12.83;;;;;;;24.57;74.34;99921.61;124157;1099;104169;-77
2022/08/21 07:25:56;;;;;;;22.57;13.73;;;;;;;24.70;74.41;99919.44;124227;1099;102229;-77
2022/08/21 07:28:27;;;;;;;24.40;13.87;;;;;;;24.83;74.15;99918.09;124263;1099;102906;-76
2022/08/21 07:31:01;;;;;;;23.87;14.17;;;;;;;24.98;73.89;99918.52;124227;1099;104163;-77
2022/08/21 07:33:35;;;;;;;24.47;14.15;;;;;;;25.06;73.14;99914.66;124244;1099;104281;-77
2022/08/21 07:36:08;;;;;;;24.93;14.17;;;;;;;25.24;73.05;99909.59;124267;1099;104166;-77
2022/08/21 07:38:40;;;;;;;22.47;14.77;;;;;;;25.39;72.43;99913.59;124277;1099;104236;-77
2022/08/21 07:41:16;;;;;;;21.83;12.93;;;;;;;25.56;72.37;99910.32;124196;1099;102821;-77
2022/08/21 07:43:48;;;;;;;21.67;13.33;;;;;;;25.73;71.98;99902.52;124178;1102;104176;-77
2022/08/21 07:46:20;;;;;;;24.77;13.57;;;;;;;25.90;71.51;99896.53;124246;1099;104201;-77
2022/08/21 07:48:51;;;;;;;21.17;12.97;;;;;;;26.01;70.95;99905.09;124224;1102;104185;-76
2022/08/21 07:51:29;;;;;;;23.77;13.63;;;;;;;26.07;70.99;99895.93;124181;1099;104248;-77
2022/08/21 07:54:01;;;;;;;21.53;13.23;;;;;;;26.17;70.78;99894.63;124228;1099;104236;-77
2022/08/21 07:56:33;;;;;;;20.00;12.17;;;;;;;26.30;70.51;99896.84;124214;1099;104194;-77
2022/08/21 07:59:05;;;;;;;21.60;12.27;;;;;;;26.46;69.93;99884.55;124155;1099;104182;-77
2022/08/21 08:01:36;;;;;;;26.20;12.90;;;;;;;26.63;69.98;99891.05;124289;1099;102829;-76
2022/08/21 08:04:08;;;;;;;20.97;11.03;;;;;;;26.77;69.39;99888.73;124218;1099;104268;-76
2022/08/21 08:06:39;;;;;;;20.70;12.10;;;;;;;26.88;68.83;99889.16;124194;1102;104246;-77
2022/08/21 08:09:10;;;;;;;21.15;12.45;;;;;;;26.94;68.44;99890.70;124262;1102;102903;-77
2022/08/21 08:11:44;;;;;;;17.73;11.87;;;;;;;27.04;67.12;99888.52;124244;1102;104322;-77
2022/08/21 08:14:16;;;;;;;18.17;10.33;;;;;;;27.11;67.00;99891.81;124356;1100;104261;-77
2022/08/21 08:16:48;;;;;;;18.62;10.55;;;;;;;27.16;66.40;99889.80;124296;1102;102371;-77
2022/08/21 08:19:19;;;;;;;19.00;9.93;;;;;;;27.22;65.93;99889.53;124164;1102;104158;-77
2022/08/21 08:21:51;;;;;;;15.65;8.95;;;;;;;27.33;65.64;99881.02;124197;1102;104280;-77
2022/08/21 08:24:22;;;;;;;18.30;8.00;;;;;;;27.44;65.70;99885.01;124206;1099;102748;-76
2022/08/21 08:26:56;;;;;;;17.87;10.50;;;;;;;27.55;65.32;99884.53;124209;1099;104303;-76
2022/08/21 08:29:28;;;;;;;20.67;10.33;;;;;;;27.64;64.81;99879.67;124164;1099;102868;-77
2022/08/21 08:31:59;;;;;;;19.07;10.60;;;;;;;27.71;64.91;99876.63;124259;1099;104175;-76
2022/08/21 08:34:31;;;;;;;17.63;9.60;;;;;;;27.82;63.83;99869.89;124207;1102;102806;-76
2022/08/21 08:37:03;;;;;;;16.67;9.13;;;;;;;27.87;63.51;99874.10;124256;1102;104083;-77
2022/08/21 08:39:34;;;;;;;18.85;10.25;;;;;;;27.77;61.78;99862.02;124241;1102;104187;-77
2022/08/21 08:42:10;;;;;;;16.40;9.67;;;;;;;27.87;61.89;99865.16;124266;1099;102769;-77
2022/08/21 08:44:43;;;;;;;18.07;10.30;;;;;;;28.01;62.49;99853.77;124196;1102;102499;-77
2022/08/21 08:47:17;;;;;;;17.33;10.07;;;;;;;28.15;62.02;99845.89;124211;1099;104157;-78
2022/08/21 08:49:56;;;;;;;22.30;11.60;;;;;;;28.29;60.83;99856.02;124210;1099;104187;-77
2022/08/21 08:52:34;;;;;;;21.83;11.77;;;;;;;28.38;60.73;99854.71;124211;1099;104166;-77
2022/08/21 08:55:09;;;;;;;21.77;11.13;;;;;;;28.39;60.06;99848.34;124199;1099;104284;-77
2022/08/21 08:57:44;;;;;;;17.47;10.27;;;;;;;28.44;60.05;99844.48;125742;1099;104221;-77
2022/08/21 09:00:21;;;;;;;20.63;10.47;;;;;;;28.53;59.49;99847.67;124231;1099;104242;-78
2022/08/21 09:02:56;;;;;;;19.73;11.70;;;;;;;28.59;59.67;99842.88;124235;1099;104111;-77
2022/08/21 09:05:29;;;;;;;21.17;10.63;;;;;;;28.57;59.59;99843.89;124230;1099;104267;-77
2022/08/21 09:08:25;;;;;;;15.97;9.30;;;;;;;28.55;59.24;99833.16;124174;1099;104246;-77
2022/08/21 09:11:04;;;;;;;17.17;9.87;;;;;;;28.69;58.72;99830.68;124263;1099;104192;-76
2022/08/21 09:13:49;;;;;;;16.20;9.30;;;;;;;28.78;58.25;99829.35;124245;1102;103056;-76
2022/08/21 09:16:32;;;;;;;15.43;9.03;;;;;;;28.82;58.23;99839.02;124208;1102;104389;-77
2022/08/21 09:19:11;;;;;;;17.57;9.20;;;;;;;28.83;57.23;99829.12;124236;1102;104121;-77
2022/08/21 09:21:55;;;;;;;16.63;9.17;;;;;;;28.87;56.66;99836.09;124202;1100;104252;-78
2022/08/21 09:24:33;;;;;;;16.87;8.90;;;;;;;28.95;56.82;99828.50;124233;1100;104236;-76
2022/08/21 09:27:09;;;;;;;17.97;9.83;;;;;;;29.03;56.77;99826.27;124206;1100;104166;-77
2022/08/21 09:29:43;;;;;;;17.20;9.27;;;;;;;29.04;55.79;99830.69;124198;1102;104269;-77
2022/08/21 09:32:19;;;;;;;18.57;9.03;;;;;;;29.05;55.84;99824.34;124208;1099;102762;-77
2022/08/21 09:35:04;;;;;;;17.15;9.25;;;;;;;29.10;55.11;99820.55;124240;1102;104223;-77
2022/08/21 09:37:47;;;;;;;17.03;8.63;;;;;;;29.21;55.34;99828.98;124220;1101;102455;-77
2022/08/21 09:40:34;;;;;;;15.72;8.80;;;;;;;29.30;55.12;99816.83;124252;1102;102994;-76
2022/08/21 09:43:08;;;;;;;16.43;9.30;;;;;;;29.34;54.48;99818.40;124206;1100;104232;-77
2022/08/21 09:45:42;;;;;;;17.50;9.43;;;;;;;29.46;54.59;99809.64;124247;1102;104245;-77
2022/08/21 09:48:16;;;;;;;17.57;9.03;;;;;;;29.56;54.27;99810.90;124166;1100;104361;-76
2022/08/21 09:50:50;;;;;;;16.00;9.00;;;;;;;29.58;53.54;99805.41;124257;1100;104224;-76
2022/08/21 09:53:25;;;;;;;16.00;9.47;;;;;;;29.62;53.78;99806.97;124198;1102;104195;-77
2022/08/21 09:58:50;;;;;;;15.00;8.40;;;;;;;29.71;53.16;99802.91;124280;1102;102794;-77
2022/08/21 10:01:25;;;;;;;16.37;8.67;;;;;;;29.81;52.82;99792.48;124247;1102;104172;-76
2022/08/21 10:04:08;;;;;;;16.07;8.27;;;;;;;29.90;52.27;99806.38;124228;1102;104241;-77
2022/08/21 10:06:40;;;;;;;15.45;9.18;;;;;;;29.86;52.10;99799.39;124259;1099;104163;-77
2022/08/21 10:09:15;;;;;;;16.20;8.57;;;;;;;29.87;52.04;99809.26;124174;1099;104089;-77
2022/08/21 10:11:55;;;;;;;14.50;9.00;;;;;;;29.86;51.86;99799.39;124180;1102;104107;-77
2022/08/21 10:14:41;;;;;;;15.83;9.00;;;;;;;29.91;51.42;99801.84;124222;1099;104239;-76
2022/08/21 10:17:22;;;;;;;14.40;9.17;;;;;;;29.97;51.42;99796.09;124186;1099;102804;-77
2022/08/21 10:20:04;;;;;;;18.60;9.15;;;;;;;30.03;51.48;99797.55;124185;1099;102443;-76
2022/08/21 10:22:45;;;;;;;16.13;8.77;;;;;;;30.14;51.19;99797.84;124179;1099;104051;-77
2022/08/21 10:25:22;;;;;;;20.87;9.03;;;;;;;30.22;51.32;99795.56;124182;1099;104226;-77
2022/08/21 10:28:02;;;;;;;14.07;9.27;;;;;;;30.23;51.37;99791.91;124190;1099;104230;-77
2022/08/21 10:30:41;;;;;;;15.97;9.23;;;;;;;30.19;50.30;99789.47;124257;1099;104328;-76
2022/08/21 10:33:26;;;;;;;17.93;9.47;;;;;;;30.21;50.57;99793.80;124290;1099;103261;-77
2022/08/21 10:36:07;;;;;;;16.27;9.03;;;;;;;30.22;50.18;99790.15;124167;1099;109104;-77
2022/08/21 10:38:55;;;;;;;15.77;8.77;;;;;;;30.30;50.25;99781.59;124242;1102;104156;-76
2022/08/21 10:41:41;;;;;;;15.33;9.47;;;;;;;30.35;50.22;99779.48;124189;1102;103302;-77
2022/08/21 10:44:23;;;;;;;16.33;9.60;;;;;;;30.43;49.35;99781.77;124240;1101;104179;-77
2022/08/21 10:47:01;;;;;;;18.05;9.15;;;;;;;30.50;49.24;99782.31;124180;1099;104204;-77
2022/08/21 10:49:46;;;;;;;12.80;8.53;;;;;;;30.59;49.16;99784.45;124225;1099;104450;-77
2022/08/21 10:52:37;;;;;;;16.50;9.20;;;;;;;30.61;48.96;99779.84;124214;1099;104156;-77
2022/08/21 10:55:13;;;;;;;16.63;9.30;;;;;;;30.62;48.74;99778.85;124252;1099;104328;-77
2022/08/21 10:57:48;;;;;;;15.70;9.57;;;;;;;30.65;48.79;99784.09;124246;1102;104380;-77
2022/08/21 11:00:23;;;;;;;17.40;9.30;;;;;;;30.63;48.62;99789.59;124207;1102;104185;-77
2022/08/21 11:03:02;;;;;;;18.90;9.00;;;;;;;30.58;48.19;99783.59;124241;1100;104242;-77
2022/08/21 11:05:38;;;;;;;15.17;9.27;;;;;;;30.64;48.64;99785.07;124223;1099;104166;-77
2022/08/21 11:08:13;;;;;;;17.80;9.37;;;;;;;30.59;48.21;99788.05;124237;1099;104259;-77
2022/08/21 11:10:48;;;;;;;17.50;8.93;;;;;;;30.65;47.79;99784.09;124242;1099;104232;-77
2022/08/21 11:13:25;;;;;;;16.13;9.03;;;;;;;30.73;48.19;99781.82;124230;1099;104302;-77
2022/08/21 11:16:03;;;;;;;13.80;8.40;;;;;;;30.86;48.05;99775.67;124163;1099;104332;-77
2022/08/21 11:18:39;;;;;;;17.03;9.00;;;;;;;30.98;47.78;99786.66;124253;1099;104188;-77
2022/08/21 11:21:27;;;;;;;13.57;8.97;;;;;;;31.01;47.29;99793.73;124236;1102;104195;-77
2022/08/21 11:24:07;;;;;;;17.30;8.63;;;;;;;31.06;47.56;99785.33;124270;1102;104288;-77
2022/08/21 11:26:44;;;;;;;20.60;9.70;;;;;;;30.99;47.18;99784.81;124195;1102;104242;-76
2022/08/21 11:29:22;;;;;;;15.00;8.80;;;;;;;31.07;47.06;99785.23;124164;1102;104182;-77
2022/08/21 11:32:12;;;;;;;16.27;9.23;;;;;;;31.11;47.00;99783.20;124223;1099;102782;-77
2022/08/21 11:34:57;;;;;;;16.50;8.87;;;;;;;30.99;46.12;99783.00;124256;1099;104233;-77
2022/08/21 11:37:55;;;;;;;14.73;8.67;;;;;;;30.85;45.22;99782.03;124273;1099;104166;-77
2022/08/21 11:40:42;;;;;;;15.97;8.10;;;;;;;30.86;46.28;99778.38;124227;1099;103633;-77